sensor_id;sensor_type;location;lat;lon;timestamp;temperature;humidity
14527;DHT22;7350;51.208;4.238;2023-04-03T00:01:03;16.40;99.90
14527;DHT22;7350;51.208;4.238;2023-04-03T00:03:30;16.30;99.90
14527;DHT22;7350;51.208;4.238;2023-04-03T00:05:57;16.30;99.90
14527;DHT22;7350;51.208;4.238;2023-04-03T00:08:25;16.30;99.90
14527;DHT22;7350;51.208;4.238;2023-04-03T00:10:52;16.30;99.90
14527;DHT22;7350;51.208;4.238;2023-04-03T00:13:19;16.30;99.90
14527;DHT22;7350;51.208;4.238;2023-04-03T00:15:46;16.30;99.90
14527;DHT22;7350;51.208;4.238;2023-04-03T00:18:13;16.30;99.90
14527;DHT22;7350;51.208;4.238;2023-04-03T00:20:40;16.20;99.90
14527;DHT22;7350;51.208;4.238;2023-04-03T00:23:07;16.20;99.90
14527;DHT22;7350;51.208;4.238;2023-04-03T00:25:36;16.20;99.90
14527;DHT22;7350;51.208;4.238;2023-04-03T00:28:04;16.20;99.90
14527;DHT22;7350;51.208;4.238;2023-04-03T00:30:31;16.20;99.90
14527;DHT22;7350;51.208;4.238;2023-04-03T00:32:58;16.20;99.90
14527;DHT22;7350;51.208;4.238;2023-04-03T00:35:26;16.20;99.90
14527;DHT22;7350;51.208;4.238;2023-04-03T00:37:54;16.20;99.90
14527;DHT22;7350;51.208;4.238;2023-04-03T00:40:23;16.20;99.90
14527;DHT22;7350;51.208;4.238;2023-04-03T00:42:56;16.10;99.90
14527;DHT22;7350;51.208;4.238;2023-04-03T00:45:34;16.10;99.90
14527;DHT22;7350;51.208;4.238;2023-04-03T00:48:04;16.20;99.90
14527;DHT22;7350;51.208;4.238;2023-04-03T00:50:34;16.10;99.90
14527;DHT22;7350;51.208;4.238;2023-04-03T00:53:04;16.10;99.90
14527;DHT22;7350;51.208;4.238;2023-04-03T00:55:31;16.10;99.90
14527;DHT22;7350;51.208;4.238;2023-04-03T00:58:00;16.20;99.90
14527;DHT22;7350;51.208;4.238;2023-04-03T01:00:28;16.10;99.90
14527;DHT22;7350;51.208;4.238;2023-04-03T01:02:55;16.10;99.90
14527;DHT22;7350;51.208;4.238;2023-04-03T01:05:22;16.10;99.90
14527;DHT22;7350;51.208;4.238;2023-04-03T01:07:51;16.10;99.90
14527;DHT22;7350;51.208;4.238;2023-04-03T01:10:19;16.00;99.90
14527;DHT22;7350;51.208;4.238;2023-04-03T01:12:48;16.00;99.90
14527;DHT22;7350;51.208;4.238;2023-04-03T01:15:20;16.00;99.90
14527;DHT22;7350;51.208;4.238;2023-04-03T01:17:49;16.00;99.90
14527;DHT22;7350;51.208;4.238;2023-04-03T01:23:48;15.90;99.90
14527;DHT22;7350;51.208;4.238;2023-04-03T01:26:17;15.90;99.90
14527;DHT22;7350;51.208;4.238;2023-04-03T01:28:45;15.90;99.90
14527;DHT22;7350;51.208;4.238;2023-04-03T01:31:19;15.90;99.90
14527;DHT22;7350;51.208;4.238;2023-04-03T01:33:49;15.90;99.90
14527;DHT22;7350;51.208;4.238;2023-04-03T01:36:18;15.90;99.90
14527;DHT22;7350;51.208;4.238;2023-04-03T01:38:46;15.90;99.90
14527;DHT22;7350;51.208;4.238;2023-04-03T01:41:13;15.80;99.90
14527;DHT22;7350;51.208;4.238;2023-04-03T01:43:41;15.90;99.90
14527;DHT22;7350;51.208;4.238;2023-04-03T01:46:08;15.90;99.90
14527;DHT22;7350;51.208;4.238;2023-04-03T01:48:35;15.90;99.90
14527;DHT22;7350;51.208;4.238;2023-04-03T01:51:03;15.80;99.90
14527;DHT22;7350;51.208;4.238;2023-04-03T01:53:31;15.80;99.90
14527;DHT22;7350;51.208;4.238;2023-04-03T01:55:58;15.80;99.90
14527;DHT22;7350;51.208;4.238;2023-04-03T01:58:25;15.80;99.90
14527;DHT22;7350;51.208;4.238;2023-04-03T02:00:52;15.80;99.90
14527;DHT22;7350;51.208;4.238;2023-04-03T02:03:20;15.80;99.90
14527;DHT22;7350;51.208;4.238;2023-04-03T02:05:50;15.80;99.90
14527;DHT22;7350;51.208;4.238;2023-04-03T02:08:18;15.80;99.90
14527;DHT22;7350;51.208;4.238;2023-04-03T02:10:47;15.80;99.90
14527;DHT22;7350;51.208;4.238;2023-04-03T02:13:14;15.80;99.90
14527;DHT22;7350;51.208;4.238;2023-04-03T02:15:42;15.80;99.90
14527;DHT22;7350;51.208;4.238;2023-04-03T02:18:09;15.80;99.90
14527;DHT22;7350;51.208;4.238;2023-04-03T02:20:36;15.80;99.90
14527;DHT22;7350;51.208;4.238;2023-04-03T02:23:03;15.80;99.90
14527;DHT22;7350;51.208;4.238;2023-04-03T02:25:32;15.80;99.90
14527;DHT22;7350;51.208;4.238;2023-04-03T02:28:00;15.70;99.90
14527;DHT22;7350;51.208;4.238;2023-04-03T02:30:27;15.70;99.90
14527;DHT22;7350;51.208;4.238;2023-04-03T02:32:54;15.70;99.90
14527;DHT22;7350;51.208;4.238;2023-04-03T02:35:21;15.70;99.90
14527;DHT22;7350;51.208;4.238;2023-04-03T02:37:48;15.70;99.90
14527;DHT22;7350;51.208;4.238;2023-04-03T02:40:15;15.70;99.90
14527;DHT22;7350;51.208;4.238;2023-04-03T02:42:43;15.70;99.90
14527;DHT22;7350;51.208;4.238;2023-04-03T02:45:10;15.70;99.90
14527;DHT22;7350;51.208;4.238;2023-04-03T02:47:37;15.60;99.90
14527;DHT22;7350;51.208;4.238;2023-04-03T02:50:05;15.60;99.90
14527;DHT22;7350;51.208;4.238;2023-04-03T02:52:32;15.70;99.90
14527;DHT22;7350;51.208;4.238;2023-04-03T02:54:59;15.60;99.90
14527;DHT22;7350;51.208;4.238;2023-04-03T02:57:26;15.60;99.90
14527;DHT22;7350;51.208;4.238;2023-04-03T02:59:54;15.60;99.90
14527;DHT22;7350;51.208;4.238;2023-04-03T03:02:21;15.60;99.90
14527;DHT22;7350;51.208;4.238;2023-04-03T03:04:48;15.60;99.90
14527;DHT22;7350;51.208;4.238;2023-04-03T03:07:15;15.60;99.90
14527;DHT22;7350;51.208;4.238;2023-04-03T03:09:42;15.60;99.90
14527;DHT22;7350;51.208;4.238;2023-04-03T03:12:09;15.60;99.90
14527;DHT22;7350;51.208;4.238;2023-04-03T03:14:36;15.60;99.90
14527;DHT22;7350;51.208;4.238;2023-04-03T03:17:04;15.60;99.90
14527;DHT22;7350;51.208;4.238;2023-04-03T03:19:31;15.60;99.90
14527;DHT22;7350;51.208;4.238;2023-04-03T03:21:58;15.60;99.90
14527;DHT22;7350;51.208;4.238;2023-04-03T03:24:25;15.60;99.90
14527;DHT22;7350;51.208;4.238;2023-04-03T03:26:52;15.60;99.90
14527;DHT22;7350;51.208;4.238;2023-04-03T03:29:19;15.60;99.90
14527;DHT22;7350;51.208;4.238;2023-04-03T03:31:46;15.60;99.90
14527;DHT22;7350;51.208;4.238;2023-04-03T03:34:14;15.60;99.90
14527;DHT22;7350;51.208;4.238;2023-04-03T03:36:41;15.50;99.90
14527;DHT22;7350;51.208;4.238;2023-04-03T03:39:09;15.50;99.90
14527;DHT22;7350;51.208;4.238;2023-04-03T03:41:36;15.60;99.90
14527;DHT22;7350;51.208;4.238;2023-04-03T03:44:03;15.50;99.90
14527;DHT22;7350;51.208;4.238;2023-04-03T03:46:30;15.50;99.90
14527;DHT22;7350;51.208;4.238;2023-04-03T03:48:57;15.50;99.90
14527;DHT22;7350;51.208;4.238;2023-04-03T03:51:26;15.50;99.90
14527;DHT22;7350;51.208;4.238;2023-04-03T03:53:53;15.50;99.90
14527;DHT22;7350;51.208;4.238;2023-04-03T03:56:20;15.50;99.90
14527;DHT22;7350;51.208;4.238;2023-04-03T03:58:47;15.50;99.90
14527;DHT22;7350;51.208;4.238;2023-04-03T04:01:15;15.60;99.90
14527;DHT22;7350;51.208;4.238;2023-04-03T04:03:42;15.70;99.90
14527;DHT22;7350;51.208;4.238;2023-04-03T04:06:09;15.70;99.90
14527;DHT22;7350;51.208;4.238;2023-04-03T04:08:37;15.70;99.90
14527;DHT22;7350;51.208;4.238;2023-04-03T04:11:04;15.80;99.90
14527;DHT22;7350;51.208;4.238;2023-04-03T04:13:31;15.90;99.90
14527;DHT22;7350;51.208;4.238;2023-04-03T04:15:58;15.90;99.90
14527;DHT22;7350;51.208;4.238;2023-04-03T04:18:25;16.00;99.90
14527;DHT22;7350;51.208;4.238;2023-04-03T04:20:52;16.00;99.90
14527;DHT22;7350;51.208;4.238;2023-04-03T04:23:19;16.10;99.90
14527;DHT22;7350;51.208;4.238;2023-04-03T04:25:48;16.20;99.90
14527;DHT22;7350;51.208;4.238;2023-04-03T04:28:15;16.20;99.90
14527;DHT22;7350;51.208;4.238;2023-04-03T04:30:42;16.20;99.90
14527;DHT22;7350;51.208;4.238;2023-04-03T04:33:09;16.30;99.90
14527;DHT22;7350;51.208;4.238;2023-04-03T04:35:36;16.30;99.90
14527;DHT22;7350;51.208;4.238;2023-04-03T04:38:03;16.40;99.90
14527;DHT22;7350;51.208;4.238;2023-04-03T04:40:31;16.40;99.90
14527;DHT22;7350;51.208;4.238;2023-04-03T04:42:59;16.50;99.90
14527;DHT22;7350;51.208;4.238;2023-04-03T04:45:26;16.50;99.90
14527;DHT22;7350;51.208;4.238;2023-04-03T04:47:55;16.50;99.90
14527;DHT22;7350;51.208;4.238;2023-04-03T04:50:22;16.60;99.90
14527;DHT22;7350;51.208;4.238;2023-04-03T04:52:49;16.70;99.90
14527;DHT22;7350;51.208;4.238;2023-04-03T04:55:16;16.70;99.90
14527;DHT22;7350;51.208;4.238;2023-04-03T04:57:43;16.80;99.90
14527;DHT22;7350;51.208;4.238;2023-04-03T05:00:13;16.80;99.90
14527;DHT22;7350;51.208;4.238;2023-04-03T05:02:40;16.80;99.90
14527;DHT22;7350;51.208;4.238;2023-04-03T05:05:08;16.80;99.90
14527;DHT22;7350;51.208;4.238;2023-04-03T05:07:35;16.80;99.90
14527;DHT22;7350;51.208;4.238;2023-04-03T05:10:02;16.90;99.90
14527;DHT22;7350;51.208;4.238;2023-04-03T05:12:30;16.90;99.90
14527;DHT22;7350;51.208;4.238;2023-04-03T05:14:57;16.90;99.90
14527;DHT22;7350;51.208;4.238;2023-04-03T05:17:25;16.90;99.90
14527;DHT22;7350;51.208;4.238;2023-04-03T05:19:52;16.90;99.90
14527;DHT22;7350;51.208;4.238;2023-04-03T05:22:19;17.00;99.90
14527;DHT22;7350;51.208;4.238;2023-04-03T05:24:46;17.00;99.90
14527;DHT22;7350;51.208;4.238;2023-04-03T05:27:13;17.00;99.90
14527;DHT22;7350;51.208;4.238;2023-04-03T05:29:40;17.00;99.90
14527;DHT22;7350;51.208;4.238;2023-04-03T05:32:09;17.00;99.90
14527;DHT22;7350;51.208;4.238;2023-04-03T05:34:37;17.00;99.90
14527;DHT22;7350;51.208;4.238;2023-04-03T05:37:04;17.10;99.90
14527;DHT22;7350;51.208;4.238;2023-04-03T05:39:32;17.10;99.90
14527;DHT22;7350;51.208;4.238;2023-04-03T05:42:02;17.10;99.90
14527;DHT22;7350;51.208;4.238;2023-04-03T05:44:29;17.10;99.90
14527;DHT22;7350;51.208;4.238;2023-04-03T05:46:56;17.20;99.90
14527;DHT22;7350;51.208;4.238;2023-04-03T05:49:23;17.20;99.90
14527;DHT22;7350;51.208;4.238;2023-04-03T05:51:51;17.30;99.90
14527;DHT22;7350;51.208;4.238;2023-04-03T05:54:20;17.30;99.90
14527;DHT22;7350;51.208;4.238;2023-04-03T05:56:48;17.30;99.90
14527;DHT22;7350;51.208;4.238;2023-04-03T05:59:21;17.20;99.90
14527;DHT22;7350;51.208;4.238;2023-04-03T06:01:48;17.20;99.90
14527;DHT22;7350;51.208;4.238;2023-04-03T06:04:15;17.30;99.90
14527;DHT22;7350;51.208;4.238;2023-04-03T06:06:44;17.30;99.90
14527;DHT22;7350;51.208;4.238;2023-04-03T06:09:13;17.40;99.90
14527;DHT22;7350;51.208;4.238;2023-04-03T06:11:40;17.40;99.90
14527;DHT22;7350;51.208;4.238;2023-04-03T06:14:07;17.40;99.90
14527;DHT22;7350;51.208;4.238;2023-04-03T06:16:34;17.30;99.90
14527;DHT22;7350;51.208;4.238;2023-04-03T06:19:02;17.30;99.90
14527;DHT22;7350;51.208;4.238;2023-04-03T06:21:30;17.20;99.90
14527;DHT22;7350;51.208;4.238;2023-04-03T06:23:57;17.20;99.90
14527;DHT22;7350;51.208;4.238;2023-04-03T06:26:25;17.10;99.90
14527;DHT22;7350;51.208;4.238;2023-04-03T06:28:52;17.20;99.90
14527;DHT22;7350;51.208;4.238;2023-04-03T06:31:19;17.20;99.90
14527;DHT22;7350;51.208;4.238;2023-04-03T06:33:46;17.10;99.90
14527;DHT22;7350;51.208;4.238;2023-04-03T06:36:13;17.00;99.90
14527;DHT22;7350;51.208;4.238;2023-04-03T06:38:44;17.00;99.90
14527;DHT22;7350;51.208;4.238;2023-04-03T06:41:10;17.00;99.90
14527;DHT22;7350;51.208;4.238;2023-04-03T06:43:39;17.00;99.90
14527;DHT22;7350;51.208;4.238;2023-04-03T06:46:06;16.90;99.90
14527;DHT22;7350;51.208;4.238;2023-04-03T06:48:33;16.90;99.90
14527;DHT22;7350;51.208;4.238;2023-04-03T06:51:00;16.80;99.90
14527;DHT22;7350;51.208;4.238;2023-04-03T06:53:27;16.80;99.90
14527;DHT22;7350;51.208;4.238;2023-04-03T06:55:54;16.70;99.90
14527;DHT22;7350;51.208;4.238;2023-04-03T06:58:21;16.70;99.90
14527;DHT22;7350;51.208;4.238;2023-04-03T07:00:49;16.70;99.90
14527;DHT22;7350;51.208;4.238;2023-04-03T07:03:16;16.70;99.90
14527;DHT22;7350;51.208;4.238;2023-04-03T07:05:43;16.60;99.90
14527;DHT22;7350;51.208;4.238;2023-04-03T07:08:11;16.60;99.90
14527;DHT22;7350;51.208;4.238;2023-04-03T07:10:38;16.60;99.90
14527;DHT22;7350;51.208;4.238;2023-04-03T07:13:05;16.50;99.90
14527;DHT22;7350;51.208;4.238;2023-04-03T07:15:32;16.50;99.90
14527;DHT22;7350;51.208;4.238;2023-04-03T07:18:00;16.40;99.90
14527;DHT22;7350;51.208;4.238;2023-04-03T07:20:27;16.40;99.90
14527;DHT22;7350;51.208;4.238;2023-04-03T07:22:54;16.40;99.90
14527;DHT22;7350;51.208;4.238;2023-04-03T07:25:21;16.40;99.90
14527;DHT22;7350;51.208;4.238;2023-04-03T07:27:48;16.40;99.90
14527;DHT22;7350;51.208;4.238;2023-04-03T07:30:15;16.40;99.90
14527;DHT22;7350;51.208;4.238;2023-04-03T07:32:43;16.40;99.90
14527;DHT22;7350;51.208;4.238;2023-04-03T07:35:12;16.40;99.90
14527;DHT22;7350;51.208;4.238;2023-04-03T07:37:39;16.30;99.90
14527;DHT22;7350;51.208;4.238;2023-04-03T07:40:06;16.20;99.90
14527;DHT22;7350;51.208;4.238;2023-04-03T07:42:34;16.30;99.90
14527;DHT22;7350;51.208;4.238;2023-04-03T07:45:02;16.50;99.90
14527;DHT22;7350;51.208;4.238;2023-04-03T07:47:29;16.80;99.90
14527;DHT22;7350;51.208;4.238;2023-04-03T07:49:56;17.20;99.90
14527;DHT22;7350;51.208;4.238;2023-04-03T07:52:25;17.30;99.90
14527;DHT22;7350;51.208;4.238;2023-04-03T07:54:52;17.40;99.90
14527;DHT22;7350;51.208;4.238;2023-04-03T07:57:19;17.50;99.90
14527;DHT22;7350;51.208;4.238;2023-04-03T07:59:46;17.50;99.90
14527;DHT22;7350;51.208;4.238;2023-04-03T08:02:13;17.40;99.90
14527;DHT22;7350;51.208;4.238;2023-04-03T08:04:40;17.60;99.90
14527;DHT22;7350;51.208;4.238;2023-04-03T08:07:07;17.70;99.90
14527;DHT22;7350;51.208;4.238;2023-04-03T08:09:35;17.80;99.90
14527;DHT22;7350;51.208;4.238;2023-04-03T08:12:03;17.60;99.90
14527;DHT22;7350;51.208;4.238;2023-04-03T08:14:31;17.50;99.90
14527;DHT22;7350;51.208;4.238;2023-04-03T08:17:00;17.40;99.90
14527;DHT22;7350;51.208;4.238;2023-04-03T08:19:28;17.50;99.90
14527;DHT22;7350;51.208;4.238;2023-04-03T08:21:55;17.50;99.90
14527;DHT22;7350;51.208;4.238;2023-04-03T08:24:23;17.50;99.90
14527;DHT22;7350;51.208;4.238;2023-04-03T08:26:51;17.60;99.90
14527;DHT22;7350;51.208;4.238;2023-04-03T08:29:18;17.60;99.90
14527;DHT22;7350;51.208;4.238;2023-04-03T08:31:46;17.60;99.90
14527;DHT22;7350;51.208;4.238;2023-04-03T08:34:15;17.70;99.90
14527;DHT22;7350;51.208;4.238;2023-04-03T08:36:42;17.70;99.90
14527;DHT22;7350;51.208;4.238;2023-04-03T08:39:10;17.50;99.90
14527;DHT22;7350;51.208;4.238;2023-04-03T08:41:38;17.40;99.90
14527;DHT22;7350;51.208;4.238;2023-04-03T08:44:22;17.40;99.90
14527;DHT22;7350;51.208;4.238;2023-04-03T08:47:04;17.40;99.90
14527;DHT22;7350;51.208;4.238;2023-04-03T08:49:37;17.40;99.90
14527;DHT22;7350;51.208;4.238;2023-04-03T08:52:11;17.40;99.90
14527;DHT22;7350;51.208;4.238;2023-04-03T08:54:49;17.30;99.90
14527;DHT22;7350;51.208;4.238;2023-04-03T08:57:23;17.30;99.90
14527;DHT22;7350;51.208;4.238;2023-04-03T08:59:52;17.30;99.90
14527;DHT22;7350;51.208;4.238;2023-04-03T09:02:27;17.30;99.90
14527;DHT22;7350;51.208;4.238;2023-04-03T09:04:56;17.30;99.90
14527;DHT22;7350;51.208;4.238;2023-04-03T09:07:30;17.30;99.90
14527;DHT22;7350;51.208;4.238;2023-04-03T09:10:00;17.30;99.90
14527;DHT22;7350;51.208;4.238;2023-04-03T09:12:37;17.40;99.90
14527;DHT22;7350;51.208;4.238;2023-04-03T09:15:14;17.50;99.90
14527;DHT22;7350;51.208;4.238;2023-04-03T09:17:49;17.80;99.90
14527;DHT22;7350;51.208;4.238;2023-04-03T09:20:24;18.00;99.90
14527;DHT22;7350;51.208;4.238;2023-04-03T09:22:51;17.90;99.90
14527;DHT22;7350;51.208;4.238;2023-04-03T09:25:21;17.90;99.90
14527;DHT22;7350;51.208;4.238;2023-04-03T09:27:48;18.00;99.90
14527;DHT22;7350;51.208;4.238;2023-04-03T09:30:19;17.90;99.90
14527;DHT22;7350;51.208;4.238;2023-04-03T09:32:48;17.90;99.90
14527;DHT22;7350;51.208;4.238;2023-04-03T09:35:22;18.00;99.90
14527;DHT22;7350;51.208;4.238;2023-04-03T09:37:51;18.00;99.90
14527;DHT22;7350;51.208;4.238;2023-04-03T09:40:34;18.10;99.90
14527;DHT22;7350;51.208;4.238;2023-04-03T09:43:24;18.00;99.90
14527;DHT22;7350;51.208;4.238;2023-04-03T09:45:53;18.00;99.90
14527;DHT22;7350;51.208;4.238;2023-04-03T09:48:23;18.00;99.90
14527;DHT22;7350;51.208;4.238;2023-04-03T09:51:03;18.10;99.90
14527;DHT22;7350;51.208;4.238;2023-04-03T09:53:33;18.10;99.90
14527;DHT22;7350;51.208;4.238;2023-04-03T09:56:03;18.10;99.90
14527;DHT22;7350;51.208;4.238;2023-04-03T09:58:32;18.10;99.90
14527;DHT22;7350;51.208;4.238;2023-04-03T10:01:02;18.10;99.90
14527;DHT22;7350;51.208;4.238;2023-04-03T10:03:31;18.10;99.90
14527;DHT22;7350;51.208;4.238;2023-04-03T10:06:01;18.00;99.90
14527;DHT22;7350;51.208;4.238;2023-04-03T10:08:30;18.10;99.90
14527;DHT22;7350;51.208;4.238;2023-04-03T10:11:14;18.50;99.90
14527;DHT22;7350;51.208;4.238;2023-04-03T10:13:53;18.80;99.90
14527;DHT22;7350;51.208;4.238;2023-04-03T10:16:26;19.40;99.90
14527;DHT22;7350;51.208;4.238;2023-04-03T10:19:03;19.50;99.90
14527;DHT22;7350;51.208;4.238;2023-04-03T10:21:39;19.60;99.90
14527;DHT22;7350;51.208;4.238;2023-04-03T10:24:11;19.60;99.90
14527;DHT22;7350;51.208;4.238;2023-04-03T10:26:47;19.70;99.90
14527;DHT22;7350;51.208;4.238;2023-04-03T10:29:26;19.80;99.90
14527;DHT22;7350;51.208;4.238;2023-04-03T10:32:01;19.80;99.90
14527;DHT22;7350;51.208;4.238;2023-04-03T10:34:32;19.90;99.90
14527;DHT22;7350;51.208;4.238;2023-04-03T10:37:06;20.00;99.90
14527;DHT22;7350;51.208;4.238;2023-04-03T10:39:46;20.00;99.90
14527;DHT22;7350;51.208;4.238;2023-04-03T10:42:19;20.00;99.90
14527;DHT22;7350;51.208;4.238;2023-04-03T10:44:58;20.10;99.90
14527;DHT22;7350;51.208;4.238;2023-04-03T10:47:34;20.10;99.90
14527;DHT22;7350;51.208;4.238;2023-04-03T10:50:22;20.20;99.90
14527;DHT22;7350;51.208;4.238;2023-04-03T10:52:57;20.20;99.90
14527;DHT22;7350;51.208;4.238;2023-04-03T10:55:35;20.00;99.90
14527;DHT22;7350;51.208;4.238;2023-04-03T10:58:05;20.10;99.90
14527;DHT22;7350;51.208;4.238;2023-04-03T11:00:37;20.20;99.90
14527;DHT22;7350;51.208;4.238;2023-04-03T11:03:12;20.30;99.90
14527;DHT22;7350;51.208;4.238;2023-04-03T11:05:43;20.30;99.90
14527;DHT22;7350;51.208;4.238;2023-04-03T11:08:17;20.40;99.90
14527;DHT22;7350;51.208;4.238;2023-04-03T11:10:49;20.40;99.90
14527;DHT22;7350;51.208;4.238;2023-04-03T11:13:20;20.40;99.90
14527;DHT22;7350;51.208;4.238;2023-04-03T11:15:49;20.40;99.90
14527;DHT22;7350;51.208;4.238;2023-04-03T11:18:21;20.50;99.90
14527;DHT22;7350;51.208;4.238;2023-04-03T11:20:58;20.20;99.90
14527;DHT22;7350;51.208;4.238;2023-04-03T11:23:31;20.00;99.90
14527;DHT22;7350;51.208;4.238;2023-04-03T11:26:07;20.30;99.90
14527;DHT22;7350;51.208;4.238;2023-04-03T11:28:34;20.50;99.90
14527;DHT22;7350;51.208;4.238;2023-04-03T11:31:13;20.70;99.90
14527;DHT22;7350;51.208;4.238;2023-04-03T11:33:52;20.60;99.90
14527;DHT22;7350;51.208;4.238;2023-04-03T11:36:24;20.40;99.90
14527;DHT22;7350;51.208;4.238;2023-04-03T11:38:54;20.30;99.90
14527;DHT22;7350;51.208;4.238;2023-04-03T11:41:26;20.30;99.90
14527;DHT22;7350;51.208;4.238;2023-04-03T11:43:59;20.30;99.90
14527;DHT22;7350;51.208;4.238;2023-04-03T11:46:49;20.30;99.90
14527;DHT22;7350;51.208;4.238;2023-04-03T11:52:58;20.80;99.90
14527;DHT22;7350;51.208;4.238;2023-04-03T11:55:53;20.80;99.90
14527;DHT22;7350;51.208;4.238;2023-04-03T11:58:22;20.90;99.90
14527;DHT22;7350;51.208;4.238;2023-04-03T12:01:08;21.00;99.90
14527;DHT22;7350;51.208;4.238;2023-04-03T12:10:12;21.30;99.90
14527;DHT22;7350;51.208;4.238;2023-04-03T12:12:42;21.30;99.90
14527;DHT22;7350;51.208;4.238;2023-04-03T12:15:24;21.30;99.90
14527;DHT22;7350;51.208;4.238;2023-04-03T12:17:52;21.00;99.90
14527;DHT22;7350;51.208;4.238;2023-04-03T12:20:54;21.10;99.90
14527;DHT22;7350;51.208;4.238;2023-04-03T12:23:27;21.00;99.90
14527;DHT22;7350;51.208;4.238;2023-04-03T12:26:04;21.20;99.90
14527;DHT22;7350;51.208;4.238;2023-04-03T12:28:38;21.40;99.90
14527;DHT22;7350;51.208;4.238;2023-04-03T12:31:10;21.50;99.90
14527;DHT22;7350;51.208;4.238;2023-04-03T12:33:49;21.20;99.90
14527;DHT22;7350;51.208;4.238;2023-04-03T12:36:32;21.00;99.90
14527;DHT22;7350;51.208;4.238;2023-04-03T12:39:33;21.20;99.90
14527;DHT22;7350;51.208;4.238;2023-04-03T12:42:15;21.60;99.90
14527;DHT22;7350;51.208;4.238;2023-04-03T12:44:49;21.70;99.90
14527;DHT22;7350;51.208;4.238;2023-04-03T12:47:23;21.70;99.90
14527;DHT22;7350;51.208;4.238;2023-04-03T12:49:53;21.80;99.90
14527;DHT22;7350;51.208;4.238;2023-04-03T12:52:32;21.80;99.90
14527;DHT22;7350;51.208;4.238;2023-04-03T12:55:00;21.90;99.90
14527;DHT22;7350;51.208;4.238;2023-04-03T12:57:31;21.90;99.90
14527;DHT22;7350;51.208;4.238;2023-04-03T12:59:58;22.00;99.90
14527;DHT22;7350;51.208;4.238;2023-04-03T13:02:27;22.00;99.90
14527;DHT22;7350;51.208;4.238;2023-04-03T13:04:57;21.70;99.90
14527;DHT22;7350;51.208;4.238;2023-04-03T13:07:28;21.50;99.90
14527;DHT22;7350;51.208;4.238;2023-04-03T13:10:03;21.40;99.90
14527;DHT22;7350;51.208;4.238;2023-04-03T13:12:32;21.40;99.90
14527;DHT22;7350;51.208;4.238;2023-04-03T13:15:01;21.50;99.90
14527;DHT22;7350;51.208;4.238;2023-04-03T13:17:30;21.80;99.90
14527;DHT22;7350;51.208;4.238;2023-04-03T13:20:10;22.00;99.90
14527;DHT22;7350;51.208;4.238;2023-04-03T13:22:42;22.10;99.90
14527;DHT22;7350;51.208;4.238;2023-04-03T13:25:15;22.10;99.90
14527;DHT22;7350;51.208;4.238;2023-04-03T13:27:44;22.10;99.90
14527;DHT22;7350;51.208;4.238;2023-04-03T13:30:33;22.10;99.90
14527;DHT22;7350;51.208;4.238;2023-04-03T13:33:04;22.20;99.90
14527;DHT22;7350;51.208;4.238;2023-04-03T13:35:36;22.30;99.90
14527;DHT22;7350;51.208;4.238;2023-04-03T13:38:07;22.30;99.90
14527;DHT22;7350;51.208;4.238;2023-04-03T13:40:49;22.40;99.90
14527;DHT22;7350;51.208;4.238;2023-04-03T13:43:21;22.40;99.90
14527;DHT22;7350;51.208;4.238;2023-04-03T13:46:21;22.50;99.90
14527;DHT22;7350;51.208;4.238;2023-04-03T13:48:50;22.50;99.90
14527;DHT22;7350;51.208;4.238;2023-04-03T13:51:21;22.60;99.90
14527;DHT22;7350;51.208;4.238;2023-04-03T13:53:51;22.60;99.90
14527;DHT22;7350;51.208;4.238;2023-04-03T13:56:23;22.60;99.90
14527;DHT22;7350;51.208;4.238;2023-04-03T13:59:02;22.60;99.90
14527;DHT22;7350;51.208;4.238;2023-04-03T14:01:38;22.60;99.90
14527;DHT22;7350;51.208;4.238;2023-04-03T14:04:13;22.70;99.90
14527;DHT22;7350;51.208;4.238;2023-04-03T14:06:42;22.70;99.90
14527;DHT22;7350;51.208;4.238;2023-04-03T14:09:09;22.80;99.90
14527;DHT22;7350;51.208;4.238;2023-04-03T14:11:36;22.80;99.90
14527;DHT22;7350;51.208;4.238;2023-04-03T14:14:12;22.50;99.90
14527;DHT22;7350;51.208;4.238;2023-04-03T14:16:43;22.30;99.90
14527;DHT22;7350;51.208;4.238;2023-04-03T14:19:19;22.30;99.90
14527;DHT22;7350;51.208;4.238;2023-04-03T14:21:48;22.60;99.90
14527;DHT22;7350;51.208;4.238;2023-04-03T14:24:16;22.80;99.90
14527;DHT22;7350;51.208;4.238;2023-04-03T14:26:44;22.70;99.90
14527;DHT22;7350;51.208;4.238;2023-04-03T14:29:13;22.80;99.90
14527;DHT22;7350;51.208;4.238;2023-04-03T14:31:42;23.00;99.90
14527;DHT22;7350;51.208;4.238;2023-04-03T14:34:10;22.90;99.90
14527;DHT22;7350;51.208;4.238;2023-04-03T14:36:37;23.00;99.90
14527;DHT22;7350;51.208;4.238;2023-04-03T14:39:05;23.00;99.90
14527;DHT22;7350;51.208;4.238;2023-04-03T14:41:33;23.10;99.90
14527;DHT22;7350;51.208;4.238;2023-04-03T14:44:00;22.60;99.90
14527;DHT22;7350;51.208;4.238;2023-04-03T14:46:30;22.20;99.90
14527;DHT22;7350;51.208;4.238;2023-04-03T14:48:58;21.80;99.90
14527;DHT22;7350;51.208;4.238;2023-04-03T14:51:25;21.60;99.90
14527;DHT22;7350;51.208;4.238;2023-04-03T14:53:52;21.50;99.90
14527;DHT22;7350;51.208;4.238;2023-04-03T14:56:25;21.40;99.90
14527;DHT22;7350;51.208;4.238;2023-04-03T14:58:55;21.30;99.90
14527;DHT22;7350;51.208;4.238;2023-04-03T15:01:23;21.20;99.90
14527;DHT22;7350;51.208;4.238;2023-04-03T15:03:51;21.30;99.90
14527;DHT22;7350;51.208;4.238;2023-04-03T15:06:19;21.60;99.90
14527;DHT22;7350;51.208;4.238;2023-04-03T15:08:48;21.40;99.90
14527;DHT22;7350;51.208;4.238;2023-04-03T15:11:15;21.20;99.90
14527;DHT22;7350;51.208;4.238;2023-04-03T15:13:42;21.40;99.90
14527;DHT22;7350;51.208;4.238;2023-04-03T15:16:15;21.20;99.90
14527;DHT22;7350;51.208;4.238;2023-04-03T15:18:42;21.10;99.90
14527;DHT22;7350;51.208;4.238;2023-04-03T15:21:12;21.10;99.90
14527;DHT22;7350;51.208;4.238;2023-04-03T15:23:39;21.20;99.90
14527;DHT22;7350;51.208;4.238;2023-04-03T15:26:07;21.20;99.90
14527;DHT22;7350;51.208;4.238;2023-04-03T15:28:37;21.00;99.90
14527;DHT22;7350;51.208;4.238;2023-04-03T15:31:05;21.00;99.90
14527;DHT22;7350;51.208;4.238;2023-04-03T15:33:33;20.90;99.90
14527;DHT22;7350;51.208;4.238;2023-04-03T15:36:00;20.90;99.90
14527;DHT22;7350;51.208;4.238;2023-04-03T15:38:29;21.10;99.90
14527;DHT22;7350;51.208;4.238;2023-04-03T15:40:56;21.00;99.90
14527;DHT22;7350;51.208;4.238;2023-04-03T15:43:23;20.90;99.90
14527;DHT22;7350;51.208;4.238;2023-04-03T15:45:50;20.90;99.90
14527;DHT22;7350;51.208;4.238;2023-04-03T15:48:18;21.10;99.90
14527;DHT22;7350;51.208;4.238;2023-04-03T15:50:45;21.60;99.90
14527;DHT22;7350;51.208;4.238;2023-04-03T15:53:12;21.30;99.90
14527;DHT22;7350;51.208;4.238;2023-04-03T15:55:40;21.00;99.90
14527;DHT22;7350;51.208;4.238;2023-04-03T15:58:07;20.90;99.90
14527;DHT22;7350;51.208;4.238;2023-04-03T16:00:35;20.80;99.90
14527;DHT22;7350;51.208;4.238;2023-04-03T16:03:07;21.00;99.90
14527;DHT22;7350;51.208;4.238;2023-04-03T16:05:35;21.10;99.90
14527;DHT22;7350;51.208;4.238;2023-04-03T16:08:03;20.90;99.90
14527;DHT22;7350;51.208;4.238;2023-04-03T16:10:31;20.80;99.90
14527;DHT22;7350;51.208;4.238;2023-04-03T16:12:59;20.80;99.90
14527;DHT22;7350;51.208;4.238;2023-04-03T16:15:26;20.80;99.90